createdAt,value
2022-12-17T00:01:07.849Z,20.75
2022-12-17T00:03:56.754Z,18.55
2022-12-17T00:06:42.452Z,20.83
2022-12-17T00:09:27.709Z,17.65
2022-12-17T00:12:12.866Z,16.58
2022-12-17T00:14:58.243Z,14.73
2022-12-17T00:17:43.730Z,15.18
2022-12-17T00:20:29.398Z,18.40
2022-12-17T00:23:23.601Z,20.48
2022-12-17T00:26:15.027Z,21.10
2022-12-17T00:29:00.537Z,19.50
2022-12-17T00:31:46.592Z,13.90
2022-12-17T00:34:32.219Z,18.60
2022-12-17T00:37:18.291Z,20.00
2022-12-17T00:40:03.664Z,20.05
2022-12-17T00:42:49.419Z,19.05
2022-12-17T00:45:34.645Z,18.10
2022-12-17T00:48:19.763Z,17.95
2022-12-17T00:51:05.115Z,19.02
2022-12-17T00:53:50.174Z,21.88
2022-12-17T00:56:21.999Z,20.63
2022-12-17T00:59:07.495Z,23.83
2022-12-17T01:01:53.057Z,27.92
2022-12-17T01:04:39.419Z,24.80
2022-12-17T01:07:25.296Z,27.35
2022-12-17T01:10:10.730Z,32.55
2022-12-17T01:12:56.515Z,30.60
2022-12-17T01:15:41.778Z,24.38
2022-12-17T01:18:27.163Z,29.77
2022-12-17T01:21:15.835Z,29.60
2022-12-17T01:24:01.079Z,31.52
2022-12-17T01:26:46.449Z,33.22
2022-12-17T01:29:31.711Z,28.98
2022-12-17T01:32:17.248Z,29.48
2022-12-17T01:35:02.619Z,48.10
2022-12-17T01:37:47.958Z,36.47
2022-12-17T01:40:33.570Z,37.13
2022-12-17T01:43:18.979Z,47.22
2022-12-17T01:46:07.161Z,37.00
2022-12-17T01:48:58.621Z,42.45
2022-12-17T01:51:45.281Z,36.42
2022-12-17T01:54:30.770Z,50.28
2022-12-17T01:57:17.235Z,44.20
2022-12-17T02:00:09.368Z,47.65
2022-12-17T02:02:54.965Z,62.65
2022-12-17T02:05:48.882Z,69.07
2022-12-17T02:08:43.471Z,67.43
2022-12-17T02:11:57.675Z,61.60
2022-12-17T02:14:54.991Z,70.85
2022-12-17T02:17:47.441Z,57.20
2022-12-17T02:20:49.688Z,90.35
2022-12-17T02:23:40.893Z,82.40
2022-12-17T02:26:54.180Z,81.07
2022-12-17T02:29:41.194Z,78.55
2022-12-17T02:32:29.095Z,82.40
2022-12-17T02:37:50.328Z,109.13
2022-12-17T02:40:38.174Z,64.68
2022-12-17T02:43:24.262Z,94.03
2022-12-17T02:46:09.879Z,93.78
2022-12-17T02:48:56.118Z,94.65
2022-12-17T02:51:42.962Z,101.03
2022-12-17T02:54:29.659Z,88.88
2022-12-17T02:57:15.157Z,91.55
2022-12-17T03:00:00.538Z,99.68
2022-12-17T03:02:46.030Z,104.75
2022-12-17T03:05:46.519Z,67.22
2022-12-17T03:08:32.183Z,89.50
2022-12-17T03:11:17.775Z,114.13
2022-12-17T03:14:03.060Z,111.05
2022-12-17T03:16:48.685Z,95.00
2022-12-17T03:19:34.058Z,88.78
2022-12-17T03:22:19.231Z,122.82
2022-12-17T03:25:04.739Z,109.55
2022-12-17T03:27:50.228Z,99.60
2022-12-17T03:30:36.522Z,111.20
2022-12-17T03:33:22.151Z,121.07
2022-12-17T03:36:07.509Z,122.75
2022-12-17T03:38:52.861Z,100.13
2022-12-17T03:41:38.284Z,98.95
2022-12-17T03:44:21.075Z,110.05
2022-12-17T03:47:06.692Z,64.72
2022-12-17T03:49:51.956Z,91.22
2022-12-17T03:52:37.262Z,93.20
2022-12-17T03:55:22.723Z,110.65
2022-12-17T03:58:07.967Z,73.32
2022-12-17T04:00:53.358Z,59.33
2022-12-17T04:03:39.371Z,65.97
2022-12-17T04:06:24.916Z,100.65
2022-12-17T04:09:10.376Z,113.90
2022-12-17T04:11:55.852Z,98.75
2022-12-17T04:14:41.289Z,62.20
2022-12-17T04:17:26.727Z,83.28
2022-12-17T04:20:12.127Z,89.25
2022-12-17T04:22:57.423Z,89.97
2022-12-17T04:25:43.033Z,86.90
2022-12-17T04:28:28.520Z,89.78
2022-12-17T04:31:13.705Z,113.45
2022-12-17T04:33:59.211Z,101.95
2022-12-17T04:36:44.705Z,75.93
2022-12-17T04:39:29.844Z,82.18
2022-12-17T04:42:15.211Z,67.13
2022-12-17T04:45:00.583Z,68.70
2022-12-17T04:47:45.911Z,72.78
2022-12-17T04:50:31.421Z,54.65
2022-12-17T04:53:21.939Z,71.20
2022-12-17T04:56:07.472Z,61.95
2022-12-17T04:58:58.139Z,91.85
2022-12-17T05:01:43.586Z,87.63
2022-12-17T05:04:29.503Z,88.95
2022-12-17T05:07:15.289Z,81.80
2022-12-17T05:10:01.026Z,89.45
2022-12-17T05:12:46.591Z,95.18
2022-12-17T05:15:32.163Z,76.97
2022-12-17T05:18:07.088Z,87.70
2022-12-17T05:20:52.479Z,103.47
2022-12-17T05:23:38.132Z,84.05
2022-12-17T05:26:36.672Z,100.47
2022-12-17T05:29:22.435Z,81.82
2022-12-17T05:32:09.023Z,56.30
2022-12-17T05:34:54.280Z,84.80
2022-12-17T05:37:39.702Z,84.30
2022-12-17T05:40:25.598Z,63.75
2022-12-17T05:43:23.556Z,60.25
2022-12-17T05:46:09.282Z,99.93
2022-12-17T05:48:55.288Z,88.60
2022-12-17T05:51:41.078Z,70.55
2022-12-17T05:54:26.707Z,96.38
2022-12-17T05:57:12.834Z,79.25
2022-12-17T05:59:59.020Z,72.60
2022-12-17T06:02:44.623Z,48.42
2022-12-17T06:05:30.867Z,62.80
2022-12-17T06:08:27.034Z,88.38
2022-12-17T06:11:13.232Z,88.47
2022-12-17T06:13:58.562Z,85.25
2022-12-17T06:16:43.892Z,61.10
2022-12-17T06:19:29.500Z,84.65
2022-12-17T06:22:15.012Z,75.47
2022-12-17T06:25:01.744Z,76.97
2022-12-17T06:27:50.763Z,83.07
2022-12-17T06:30:36.256Z,71.97
2022-12-17T06:33:25.846Z,68.97
2022-12-17T06:36:21.733Z,86.80
2022-12-17T06:39:08.472Z,78.47
2022-12-17T06:42:02.014Z,61.17
2022-12-17T06:44:49.800Z,76.93
2022-12-17T06:47:35.503Z,79.50
2022-12-17T06:50:20.740Z,80.55
2022-12-17T06:53:05.783Z,58.42
2022-12-17T06:55:53.749Z,57.30
2022-12-17T06:58:39.129Z,40.53
2022-12-17T07:01:24.894Z,50.95
2022-12-17T07:04:10.405Z,62.38
2022-12-17T07:06:55.559Z,47.72
2022-12-17T07:09:48.608Z,54.58
2022-12-17T07:12:34.219Z,45.22
2022-12-17T07:15:19.249Z,40.33
2022-12-17T07:18:19.430Z,28.00
2022-12-17T07:21:06.024Z,51.85
2022-12-17T07:23:51.621Z,25.48
2022-12-17T07:26:26.265Z,49.25
2022-12-17T07:29:11.778Z,42.67
2022-12-17T07:32:00.145Z,36.13
2022-12-17T07:34:45.671Z,51.42
2022-12-17T07:37:31.247Z,42.55
2022-12-17T07:40:16.874Z,39.70
2022-12-17T07:43:02.695Z,31.35
2022-12-17T07:45:47.895Z,24.67
2022-12-17T07:48:33.167Z,41.40
2022-12-17T07:51:18.455Z,35.38
2022-12-17T07:54:04.509Z,41.05
2022-12-17T07:56:49.952Z,31.80
2022-12-17T07:59:35.046Z,23.45
2022-12-17T08:02:20.787Z,28.38
2022-12-17T08:05:06.323Z,51.88
2022-12-17T08:07:51.619Z,45.05
2022-12-17T08:10:37.459Z,32.30
2022-12-17T08:13:25.293Z,33.85
2022-12-17T08:16:13.830Z,44.55
2022-12-17T08:18:59.275Z,40.30
2022-12-17T08:21:44.495Z,40.75
2022-12-17T08:24:29.966Z,43.47
2022-12-17T08:27:16.041Z,54.85
2022-12-17T08:30:01.744Z,49.53
2022-12-17T08:32:47.040Z,39.78
2022-12-17T08:35:32.362Z,50.58
2022-12-17T08:38:25.066Z,52.83
2022-12-17T08:41:10.439Z,43.00
2022-12-17T08:43:55.847Z,58.30
2022-12-17T08:46:41.316Z,44.35
2022-12-17T08:49:26.715Z,41.53
2022-12-17T08:52:12.232Z,46.63
2022-12-17T08:54:57.567Z,50.42
2022-12-17T08:57:42.964Z,48.88
2022-12-17T09:00:29.500Z,54.72
2022-12-17T09:03:21.195Z,58.15
2022-12-17T09:06:06.946Z,42.15
2022-12-17T09:08:52.419Z,40.33
2022-12-17T09:11:37.892Z,47.75
2022-12-17T09:14:23.271Z,43.30
2022-12-17T09:17:08.656Z,36.25
2022-12-17T09:19:53.959Z,48.08
2022-12-17T09:22:39.522Z,57.97
2022-12-17T09:25:32.527Z,54.17
2022-12-17T09:28:21.485Z,66.95
2022-12-17T09:31:07.028Z,63.92
2022-12-17T09:33:52.755Z,59.33
2022-12-17T09:36:38.382Z,62.22
2022-12-17T09:39:23.815Z,45.92
2022-12-17T09:42:35.102Z,56.75
2022-12-17T09:45:45.730Z,17.50
2022-12-17T09:48:46.455Z,39.83
2022-12-17T09:51:52.984Z,54.63
2022-12-17T09:55:03.544Z,46.60
2022-12-17T09:57:52.813Z,65.60
2022-12-17T10:00:41.485Z,65.65
2022-12-17T10:03:33.009Z,61.22
2022-12-17T10:06:41.834Z,39.25
2022-12-17T10:09:33.041Z,67.78
2022-12-17T10:12:32.971Z,52.03
2022-12-17T10:15:18.424Z,30.27
2022-12-17T10:18:03.990Z,77.45
2022-12-17T10:20:59.839Z,47.97
2022-12-17T10:23:49.924Z,59.28
2022-12-17T10:26:41.400Z,65.15
2022-12-17T10:29:48.283Z,80.40
2022-12-17T10:32:34.110Z,35.75
2022-12-17T10:35:30.913Z,65.18
2022-12-17T10:38:31.887Z,38.25
2022-12-17T10:41:17.103Z,44.70
2022-12-17T10:44:02.550Z,62.05
2022-12-17T10:46:52.809Z,56.13
2022-12-17T10:49:40.792Z,45.92
2022-12-17T10:52:46.048Z,51.90
2022-12-17T10:55:44.946Z,30.30
2022-12-17T10:58:34.215Z,65.63
2022-12-17T11:01:20.794Z,83.05
2022-12-17T11:04:13.129Z,67.55
2022-12-17T11:07:10.246Z,19.95
2022-12-17T11:10:09.184Z,69.80
2022-12-17T11:13:17.131Z,22.48
2022-12-17T11:16:07.315Z,73.63
2022-12-17T11:19:13.727Z,50.00
2022-12-17T11:22:03.213Z,100.10
2022-12-17T11:24:58.596Z,79.20
2022-12-17T11:27:48.511Z,61.13
2022-12-17T11:30:35.414Z,62.95
2022-12-17T11:33:37.886Z,93.43
2022-12-17T11:36:44.525Z,85.00
2022-12-17T11:39:44.227Z,76.85
2022-12-17T11:43:01.659Z,97.55
2022-12-17T11:45:54.440Z,39.10
2022-12-17T11:48:53.633Z,71.07
2022-12-17T11:52:01.038Z,79.00
2022-12-17T11:55:04.721Z,99.50
2022-12-17T11:58:04.161Z,90.72
2022-12-17T12:01:00.463Z,78.55
2022-12-17T12:04:01.272Z,65.93
2022-12-17T12:06:46.459Z,66.97
2022-12-17T12:09:44.601Z,63.20
2022-12-17T12:12:56.113Z,75.13
2022-12-17T12:15:50.537Z,33.20
2022-12-17T12:18:46.403Z,65.43
2022-12-17T12:21:57.432Z,45.08
2022-12-17T12:24:49.027Z,61.05
2022-12-17T12:27:42.856Z,63.88
2022-12-17T12:30:36.312Z,62.33
2022-12-17T12:33:36.584Z,59.20
2022-12-17T12:36:26.988Z,68.72
2022-12-17T12:39:14.397Z,65.82
2022-12-17T12:42:21.810Z,47.13
2022-12-17T12:45:18.599Z,59.58
2022-12-17T12:48:16.198Z,64.05
2022-12-17T12:51:33.714Z,63.63
2022-12-17T12:54:38.123Z,87.78
2022-12-17T12:57:23.817Z,52.53
2022-12-17T13:00:08.943Z,78.72
2022-12-17T13:02:54.448Z,41.55
2022-12-17T13:05:39.943Z,32.58
2022-12-17T13:08:15.422Z,57.95
2022-12-17T13:10:42.066Z,62.70
2022-12-17T13:13:29.408Z,64.53
2022-12-17T13:16:01.947Z,76.32
2022-12-17T13:18:37.291Z,70.18
2022-12-17T13:21:25.596Z,59.95
2022-12-17T13:23:52.396Z,36.50
2022-12-17T13:26:42.167Z,67.40
2022-12-17T13:29:40.158Z,70.10
2022-12-17T13:32:17.880Z,55.90
2022-12-17T13:34:47.243Z,52.00
2022-12-17T13:37:39.724Z,71.35
2022-12-17T13:40:42.054Z,55.28
2022-12-17T13:43:21.579Z,72.32
2022-12-17T13:45:50.277Z,39.45
2022-12-17T13:48:28.339Z,63.78
2022-12-17T13:51:00.993Z,85.32
2022-12-17T13:53:28.871Z,51.05
2022-12-17T13:55:57.171Z,35.45
2022-12-17T13:58:32.807Z,51.10
2022-12-17T14:01:14.512Z,44.55
2022-12-17T14:04:05.826Z,70.47
2022-12-17T14:06:37.682Z,68.80
2022-12-17T14:09:05.441Z,46.72
2022-12-17T14:11:51.731Z,68.95
2022-12-17T14:14:41.086Z,51.50
2022-12-17T14:17:20.045Z,46.83
2022-12-17T14:19:48.478Z,43.47
2022-12-17T14:22:51.290Z,69.72
2022-12-17T14:25:21.783Z,46.08
2022-12-17T14:27:58.732Z,79.15
2022-12-17T14:31:24.392Z,71.85
2022-12-17T14:33:35.187Z,65.90
2022-12-17T14:36:23.570Z,52.42
2022-12-17T14:39:02.324Z,47.53
2022-12-17T14:41:55.687Z,31.42
2022-12-17T14:44:28.675Z,58.42
2022-12-17T14:47:22.063Z,79.95
2022-12-17T14:50:11.900Z,59.67
2022-12-17T14:52:44.950Z,30.20
2022-12-17T14:55:25.788Z,60.63
2022-12-17T14:57:53.381Z,54.90
2022-12-17T15:00:21.182Z,62.45
2022-12-17T15:02:54.267Z,73.15
2022-12-17T15:05:21.242Z,69.38
2022-12-17T15:07:48.007Z,37.80
2022-12-17T15:10:19.570Z,58.65
2022-12-17T15:12:47.883Z,65.32
2022-12-17T15:15:16.292Z,73.47
2022-12-17T15:17:43.576Z,79.82
2022-12-17T15:20:17.751Z,59.63
2022-12-17T15:22:44.813Z,46.47
2022-12-17T15:25:17.748Z,74.85
2022-12-17T15:27:44.606Z,37.83
2022-12-17T15:30:16.568Z,65.80
2022-12-17T15:32:44.389Z,61.95
2022-12-17T15:35:12.660Z,57.08
2022-12-17T15:37:39.735Z,48.67
2022-12-17T15:40:07.623Z,80.30
2022-12-17T15:42:52.779Z,69.78
2022-12-17T15:45:19.412Z,57.70
2022-12-17T15:47:46.030Z,62.15
2022-12-17T15:50:12.705Z,71.97
2022-12-17T15:52:39.319Z,58.85
2022-12-17T15:55:06.500Z,47.38
2022-12-17T15:57:33.153Z,41.20
2022-12-17T16:00:02.749Z,43.97
2022-12-17T16:02:29.563Z,81.78
2022-12-17T16:04:56.347Z,48.80
2022-12-17T16:07:22.991Z,63.92
2022-12-17T16:09:49.639Z,65.97
2022-12-17T16:12:16.335Z,75.57
2022-12-17T16:14:42.899Z,73.60
2022-12-17T16:17:09.563Z,63.08
2022-12-17T16:19:36.411Z,62.40
2022-12-17T16:22:03.304Z,78.82
2022-12-17T16:24:29.924Z,99.55
2022-12-17T16:27:02.451Z,73.55
2022-12-17T16:31:57.818Z,50.55
2022-12-17T16:34:24.545Z,57.50
2022-12-17T16:36:51.356Z,41.70
2022-12-17T16:39:19.160Z,80.18
2022-12-17T16:41:55.337Z,76.25
2022-12-17T16:44:22.012Z,45.35
2022-12-17T16:46:48.872Z,73.15
2022-12-17T16:49:18.682Z,32.78
2022-12-17T16:51:48.120Z,53.67
2022-12-17T16:54:17.458Z,53.58
2022-12-17T16:56:45.918Z,85.15
2022-12-17T16:59:14.330Z,42.80
2022-12-17T17:01:44.610Z,71.68
2022-12-17T17:04:13.135Z,36.13
2022-12-17T17:06:42.835Z,37.83
2022-12-17T17:09:09.748Z,46.40
2022-12-17T17:11:36.668Z,61.45
2022-12-17T17:14:06.685Z,75.22
2022-12-17T17:16:36.623Z,73.82
2022-12-17T17:19:05.136Z,69.20
2022-12-17T17:21:34.252Z,49.40
2022-12-17T17:24:20.055Z,73.72
2022-12-17T17:26:48.444Z,40.97
2022-12-17T17:29:15.094Z,45.28
2022-12-17T17:34:28.458Z,32.88
2022-12-17T17:36:55.120Z,54.90
2022-12-17T17:39:21.864Z,36.90
2022-12-17T17:41:48.603Z,40.97
2022-12-17T17:44:16.539Z,42.53
2022-12-17T17:46:43.396Z,39.97
2022-12-17T17:49:10.578Z,41.35
2022-12-17T17:54:28.242Z,58.58
2022-12-17T17:56:54.950Z,49.45
2022-12-17T17:59:27.834Z,65.20
2022-12-17T18:01:59.918Z,73.10
2022-12-17T18:04:26.724Z,63.58
2022-12-17T18:07:23.695Z,34.47
2022-12-17T18:09:40.059Z,42.97
2022-12-17T18:12:26.859Z,23.83
2022-12-17T18:17:40.339Z,32.10
2022-12-17T18:20:07.459Z,50.70
2022-12-17T18:22:34.110Z,33.40
2022-12-17T18:25:00.963Z,27.30
2022-12-17T18:27:27.701Z,34.10
2022-12-17T18:29:54.329Z,65.78
2022-12-17T18:32:21.012Z,33.10
2022-12-17T18:34:47.690Z,63.95
2022-12-17T18:37:14.387Z,35.65
2022-12-17T18:39:41.086Z,53.92
2022-12-17T18:42:27.388Z,76.05
2022-12-17T18:44:54.035Z,52.22
2022-12-17T18:47:21.287Z,51.92
2022-12-17T18:49:48.347Z,81.28
2022-12-17T18:52:17.231Z,41.63
2022-12-17T18:54:44.975Z,28.73
2022-12-17T18:57:11.765Z,45.03
2022-12-17T18:59:40.645Z,54.22
2022-12-17T19:02:12.204Z,54.35
2022-12-17T19:04:39.198Z,52.47
2022-12-17T19:07:05.789Z,49.95
2022-12-17T19:09:36.454Z,50.85
2022-12-17T19:12:05.898Z,48.63
2022-12-17T19:14:32.830Z,67.32
2022-12-17T19:16:59.670Z,69.22
2022-12-17T19:19:26.872Z,47.80
2022-12-17T19:21:55.276Z,54.78
2022-12-17T19:24:23.178Z,63.05
2022-12-17T19:26:50.724Z,60.78
2022-12-17T19:29:18.869Z,30.13
2022-12-17T19:31:45.746Z,49.85
2022-12-17T19:34:15.275Z,66.57
2022-12-17T19:36:42.793Z,46.72
2022-12-17T19:39:13.431Z,61.15
2022-12-17T19:41:40.365Z,42.47
2022-12-17T19:44:11.018Z,50.88
2022-12-17T19:46:37.727Z,61.65
2022-12-17T19:49:05.265Z,35.13
2022-12-17T19:51:32.624Z,28.48
2022-12-17T19:54:06.374Z,52.83
2022-12-17T19:56:35.265Z,48.72
2022-12-17T19:59:06.797Z,52.10
2022-12-17T20:01:36.642Z,52.15
2022-12-17T20:04:04.061Z,66.90
2022-12-17T20:06:33.147Z,50.42
2022-12-17T20:09:00.964Z,44.78
2022-12-17T20:11:34.650Z,56.95
2022-12-17T20:14:12.271Z,56.83
2022-12-17T20:16:41.778Z,49.15
2022-12-17T20:19:11.940Z,43.50
2022-12-17T20:21:38.830Z,63.33
2022-12-17T20:24:05.991Z,53.85
2022-12-17T20:26:33.160Z,67.47
2022-12-17T20:29:00.295Z,49.35
2022-12-17T20:31:27.996Z,43.75
2022-12-17T20:33:54.863Z,37.85
2022-12-17T20:36:22.720Z,56.20
2022-12-17T20:38:49.666Z,53.83
2022-12-17T20:41:21.320Z,60.10
2022-12-17T20:43:48.572Z,72.53
2022-12-17T20:46:15.867Z,51.58
2022-12-17T20:48:43.769Z,61.38
2022-12-17T20:51:13.148Z,65.88
2022-12-17T20:53:40.585Z,65.57
2022-12-17T20:56:10.750Z,53.65
2022-12-17T20:58:39.165Z,59.95
2022-12-17T21:01:09.111Z,73.70
2022-12-17T21:03:36.330Z,81.43
2022-12-17T21:06:08.960Z,76.32
2022-12-17T21:08:36.249Z,68.97
2022-12-17T21:11:03.319Z,45.45
2022-12-17T21:13:30.333Z,62.05
2022-12-17T21:15:59.299Z,68.25
2022-12-17T21:18:26.928Z,55.22
2022-12-17T21:21:08.655Z,54.30
2022-12-17T21:23:37.288Z,45.22
2022-12-17T21:26:08.709Z,61.50
2022-12-17T21:28:39.825Z,51.47
2022-12-17T21:31:14.198Z,64.75
2022-12-17T21:33:40.934Z,54.22
2022-12-17T21:36:08.218Z,61.78
2022-12-17T21:38:34.883Z,61.92
2022-12-17T21:41:08.591Z,50.35
2022-12-17T21:43:36.848Z,66.82
2022-12-17T21:46:05.065Z,58.83
2022-12-17T21:48:38.064Z,68.72
2022-12-17T21:51:10.210Z,78.78
2022-12-17T21:53:41.786Z,66.53
2022-12-17T21:56:14.243Z,60.13
2022-12-17T21:58:42.692Z,89.53
2022-12-17T22:01:18.825Z,76.93
2022-12-17T22:03:47.699Z,55.78
2022-12-17T22:06:22.255Z,71.60
2022-12-17T22:08:50.323Z,71.43
2022-12-17T22:11:25.590Z,63.88
2022-12-17T22:14:15.271Z,62.13
2022-12-17T22:16:48.126Z,73.45
2022-12-17T22:19:17.655Z,53.70
2022-12-17T22:21:47.719Z,77.20
2022-12-17T22:24:20.781Z,78.43
2022-12-17T22:26:47.758Z,72.03
2022-12-17T22:29:35.235Z,49.80
2022-12-17T22:32:20.775Z,65.93
2022-12-17T22:35:29.385Z,48.42
2022-12-17T22:39:08.255Z,81.43
2022-12-17T22:42:13.904Z,49.08
2022-12-17T22:44:44.261Z,59.83
2022-12-17T22:46:16.290Z,52.42
2022-12-17T22:48:42.998Z,62.35
2022-12-17T22:51:13.430Z,61.53
2022-12-17T22:53:46.347Z,61.22
2022-12-17T22:56:28.998Z,84.88
2022-12-17T22:59:00.223Z,76.20
2022-12-17T23:01:27.241Z,68.63
2022-12-17T23:04:02.000Z,62.28
2022-12-17T23:06:29.039Z,38.80
2022-12-17T23:08:56.284Z,50.78
2022-12-17T23:11:25.240Z,72.10
2022-12-17T23:13:53.026Z,69.30
2022-12-17T23:16:20.319Z,76.50
2022-12-17T23:18:50.454Z,37.00
2022-12-17T23:21:25.416Z,65.60
2022-12-17T23:23:53.228Z,41.85
2022-12-17T23:26:29.531Z,64.97
2022-12-17T23:29:01.741Z,71.45
2022-12-17T23:31:31.829Z,64.72
2022-12-17T23:33:58.876Z,70.47
2022-12-17T23:36:26.266Z,56.40
2022-12-17T23:38:54.988Z,41.97
2022-12-17T23:41:24.364Z,46.50
2022-12-17T23:43:51.275Z,60.53
2022-12-17T23:46:20.377Z,53.00
2022-12-17T23:48:49.111Z,57.42
2022-12-17T23:51:18.584Z,55.53
2022-12-17T23:53:45.315Z,75.95
2022-12-17T23:56:16.850Z,62.53
2022-12-17T23:58:44.710Z,65.00
